Time;durP1;ratioP1;P1;durP2;ratioP2;P2;SDS_P1;SDS_P2;PMS_P1;PMS_P2;Temp;Humidity;BMP_temperature;BMP_pressure;BME280_temperature;BME280_humidity;BME280_pressure;Samples;Min_cycle;Max_cycle;Signal;HPM_P1;HPM_P2
2022/10/03 04:40:53;;;;;;;7.28;4.03;;;;;;;;;;4939383;29;20042;-81
2022/10/03 04:43:39;;;;;;;9.98;3.90;;;;;;;;;;4922852;29;20044;-79
2022/10/03 04:46:24;;;;;;;5.05;3.40;;;;;;;;;;5290928;23;20042;-82
2022/10/03 05:52:47;;;;;;;10.80;4.70;;;;;;;;;;5342304;23;20048;-83
2022/10/03 05:55:29;;;;;;;5.93;4.50;;;;;;;;;;4882324;29;20070;-81
2022/10/03 05:58:37;;;;;;;5.05;4.25;;;;;;;;;;4880773;29;20059;-84
2022/10/03 06:01:39;;;;;;;6.63;4.20;;;;;;;;;;4854887;29;20145;-81
2022/10/03 06:04:45;;;;;;;6.00;3.67;;;;;;;;;;4857420;29;20038;-81
2022/10/03 06:07:48;;;;;;;5.95;3.78;;;;;;;;;;4785668;29;20043;-81
2022/10/03 06:10:21;;;;;;;;;;;;;;;;;;4738134;30;20069;-79
2022/10/03 06:13:18;;;;;;;5.72;3.60;;;;;;;;;;4784372;30;19898;-81
2022/10/03 06:15:58;;;;;;;4.40;3.72;;;;;;;;;;4730456;30;20222;-80
2022/10/03 06:18:50;;;;;;;7.03;3.80;;;;;;;;;;4721850;30;20102;-80
2022/10/03 06:21:34;;;;;;;5.88;3.80;;;;;;;;;;4716666;30;20041;-78
2022/10/03 06:24:19;;;;;;;4.93;3.83;;;;;;;;;;4724361;30;20111;-79
2022/10/03 06:26:45;;;;;;;5.00;3.50;;;;;;;;;;4723079;30;20489;-77
2022/10/03 06:29:17;;;;;;;5.18;3.30;;;;;;;;;;4726050;30;20060;-77
2022/10/03 06:31:52;;;;;;;9.07;3.63;;;;;;;;;;4743488;30;20120;-77
2022/10/03 06:34:22;;;;;;;5.13;3.47;;;;;;;;;;4768824;30;20032;-79
2022/10/03 06:36:48;;;;;;;4.05;3.25;;;;;;;;;;4768475;30;20039;-78
2022/10/03 06:39:32;;;;;;;5.57;3.55;;;;;;;;;;4766557;30;20441;-77
2022/10/03 06:42:16;;;;;;;6.30;3.60;;;;;;;;;;4777666;29;20063;-75
2022/10/03 06:45:00;;;;;;;4.57;3.50;;;;;;;;;;4811760;29;20117;-78
2022/10/03 06:47:30;;;;;;;6.18;3.65;;;;;;;;;;4792618;29;20103;-77
2022/10/03 06:50:25;;;;;;;8.63;3.63;;;;;;;;;;4810992;29;20034;-77
2022/10/03 06:52:51;;;;;;;4.95;3.28;;;;;;;;;;4852517;29;20047;-77
2022/10/03 06:55:17;;;;;;;6.45;3.47;;;;;;;;;;4899597;29;20037;-77
2022/10/03 06:57:56;;;;;;;6.25;3.22;;;;;;;;;;4894428;29;20083;-78
2022/10/03 07:00:43;;;;;;;7.65;4.15;;;;;;;;;;4904910;29;20024;-79
2022/10/03 07:03:18;;;;;;;6.53;3.45;;;;;;;;;;4899375;29;20041;-79
2022/10/03 07:06:21;;;;;;;6.00;3.53;;;;;;;;;;4897801;29;20021;-79
2022/10/03 07:09:05;;;;;;;7.82;2.90;;;;;;;;;;4840209;29;20480;-79
2022/10/03 07:11:46;;;;;;;6.38;2.67;;;;;;;;;;4845065;29;20052;-79
2022/10/03 07:14:35;;;;;;;5.28;3.22;;;;;;;;;;4844786;29;20085;-79
2022/10/03 07:17:21;;;;;;;5.25;3.80;;;;;;;;;;4845774;29;20156;-80
2022/10/03 07:20:06;;;;;;;4.80;2.42;;;;;;;;;;4847318;29;20034;-80
2022/10/03 07:22:56;;;;;;;6.40;4.30;;;;;;;;;;4834360;29;20038;-79
2022/10/03 07:25:31;;;;;;;6.80;3.40;;;;;;;;;;4850151;29;20443;-79
2022/10/03 07:28:16;;;;;;;9.02;4.30;;;;;;;;;;4849053;29;20034;-80
2022/10/03 07:30:47;;;;;;;5.70;3.20;;;;;;;;;;4835399;29;20026;-80
2022/10/03 07:33:29;;;;;;;7.82;2.92;;;;;;;;;;4848286;29;20042;-81
2022/10/03 07:39:17;;;;;;;7.35;4.00;;;;;;;;;;4852405;29;20055;-79
2022/10/03 07:42:00;;;;;;;5.40;2.45;;;;;;;;;;4856543;29;20010;-79
2022/10/03 07:44:29;;;;;;;7.70;4.50;;;;;;;;;;4904952;29;20040;-79
2022/10/03 07:46:58;;;;;;;7.18;2.80;;;;;;;;;;4890754;29;20039;-80
2022/10/03 07:49:30;;;;;;;7.18;2.63;;;;;;;;;;4906324;29;20029;-80
2022/10/03 07:52:01;;;;;;;8.65;3.05;;;;;;;;;;4885628;29;20084;-78
2022/10/03 07:54:39;;;;;;;6.88;3.70;;;;;;;;;;4887369;29;20949;-79
2022/10/03 07:57:11;;;;;;;7.47;3.22;;;;;;;;;;4898769;29;20565;-79
2022/10/03 07:59:56;;;;;;;8.07;2.97;;;;;;;;;;4891613;29;20048;-80
2022/10/03 08:02:34;;;;;;;6.43;2.80;;;;;;;;;;4903096;29;20096;-80
2022/10/03 08:05:13;;;;;;;6.63;3.15;;;;;;;;;;4897225;29;20040;-80
2022/10/03 08:07:56;;;;;;;4.88;2.70;;;;;;;;;;4898522;29;20028;-79
2022/10/03 08:10:32;;;;;;;4.22;2.60;;;;;;;;;;4883521;29;20037;-80
2022/10/03 08:13:01;;;;;;;6.93;3.00;;;;;;;;;;4905902;29;20051;-79
2022/10/03 08:15:39;;;;;;;9.32;3.85;;;;;;;;;;4893623;29;20047;-79
2022/10/03 08:18:22;;;;;;;8.65;3.40;;;;;;;;;;4902421;29;20029;-78
2022/10/03 08:20:48;;;;;;;5.65;3.45;;;;;;;;;;4914473;29;20028;-77
2022/10/03 08:23:22;;;;;;;4.05;3.05;;;;;;;;;;4917702;29;20048;-77
2022/10/03 08:25:58;;;;;;;7.97;3.58;;;;;;;;;;4886346;29;20103;-78
2022/10/03 08:28:33;;;;;;;12.13;3.65;;;;;;;;;;4899823;29;20072;-77
2022/10/03 08:31:01;;;;;;;9.98;4.00;;;;;;;;;;4909686;29;20024;-77
2022/10/03 08:33:30;;;;;;;13.23;3.85;;;;;;;;;;4900475;29;20043;-77
2022/10/03 08:36:06;;;;;;;12.20;3.50;;;;;;;;;;4896285;29;20085;-76
2022/10/03 08:38:32;;;;;;;6.85;3.50;;;;;;;;;;4912060;29;20036;-79
2022/10/03 08:41:17;;;;;;;9.27;3.00;;;;;;;;;;4917146;29;20013;-78
2022/10/03 08:44:08;;;;;;;14.00;3.15;;;;;;;;;;4917365;29;20040;-77
2022/10/03 08:46:40;;;;;;;11.27;3.70;;;;;;;;;;4907770;29;20036;-77
2022/10/03 08:49:26;;;;;;;15.02;3.70;;;;;;;;;;4910577;29;20084;-81
2022/10/03 08:52:08;;;;;;;7.60;2.85;;;;;;;;;;4899071;29;20043;-79
2022/10/03 08:54:34;;;;;;;6.57;2.45;;;;;;;;;;4906067;29;20554;-78
2022/10/03 08:57:13;;;;;;;5.57;2.67;;;;;;;;;;4901295;29;20064;-77
2022/10/03 08:59:54;;;;;;;7.30;2.80;;;;;;;;;;4894907;29;20119;-75
2022/10/03 09:02:35;;;;;;;5.95;2.40;;;;;;;;;;4893346;29;20513;-77
2022/10/03 09:05:07;;;;;;;7.70;2.70;;;;;;;;;;4896140;29;20091;-78
2022/10/03 09:07:37;;;;;;;6.45;2.85;;;;;;;;;;4891151;29;20036;-77
2022/10/03 09:10:21;;;;;;;8.63;2.80;;;;;;;;;;4898430;29;20107;-77
2022/10/03 09:12:56;;;;;;;5.50;2.67;;;;;;;;;;4897898;29;20088;-77
2022/10/03 09:15:49;;;;;;;9.07;2.78;;;;;;;;;;4890945;29;20598;-78
2022/10/03 09:18:30;;;;;;;6.97;2.70;;;;;;;;;;4895022;29;20036;-78
2022/10/03 09:21:16;;;;;;;6.35;2.13;;;;;;;;;;4899223;29;20052;-77
2022/10/03 09:24:06;;;;;;;6.25;2.40;;;;;;;;;;4889128;29;20076;-76
2022/10/03 09:26:32;;;;;;;7.43;2.30;;;;;;;;;;4897681;29;20056;-77
2022/10/03 09:29:18;;;;;;;7.40;2.47;;;;;;;;;;4897495;29;20021;-78
2022/10/03 09:31:50;;;;;;;4.55;2.40;;;;;;;;;;4896159;29;20048;-76
2022/10/03 09:34:26;;;;;;;5.93;2.28;;;;;;;;;;4894640;29;20487;-77
2022/10/03 09:37:01;;;;;;;6.60;2.50;;;;;;;;;;4892763;29;20033;-76
2022/10/03 09:39:37;;;;;;;7.93;2.30;;;;;;;;;;4897289;29;20115;-76
2022/10/03 09:42:12;;;;;;;7.93;2.60;;;;;;;;;;4893408;29;20122;-76
2022/10/03 09:44:44;;;;;;;6.85;2.30;;;;;;;;;;4896867;29;20044;-76
2022/10/03 09:47:22;;;;;;;7.38;2.45;;;;;;;;;;4894537;29;20029;-77
2022/10/03 09:50:07;;;;;;;9.50;2.70;;;;;;;;;;4896674;29;20029;-77
2022/10/03 09:52:49;;;;;;;7.13;2.40;;;;;;;;;;4896147;29;20096;-78
2022/10/03 09:55:18;;;;;;;10.73;2.35;;;;;;;;;;4892641;29;20087;-76
2022/10/03 09:57:50;;;;;;;7.95;2.35;;;;;;;;;;4889022;29;20021;-79
2022/10/03 10:00:25;;;;;;;9.13;2.67;;;;;;;;;;4897253;29;20533;-78
2022/10/03 10:02:54;;;;;;;6.82;2.30;;;;;;;;;;4896014;29;20080;-75
2022/10/03 10:05:20;;;;;;;6.97;2.35;;;;;;;;;;4896510;29;20047;-77
2022/10/03 10:08:18;;;;;;;7.88;2.40;;;;;;;;;;4895928;29;20063;-77
2022/10/03 10:10:47;;;;;;;7.32;2.45;;;;;;;;;;4802893;29;20121;-77
2022/10/03 10:13:32;;;;;;;6.68;2.30;;;;;;;;;;4799881;29;20051;-77
2022/10/03 10:16:00;;;;;;;6.28;2.22;;;;;;;;;;4806037;29;20076;-77
2022/10/03 10:18:39;;;;;;;7.22;2.40;;;;;;;;;;4805094;29;20070;-77
2022/10/03 10:21:23;;;;;;;8.18;2.60;;;;;;;;;;4801720;29;20498;-76
2022/10/03 10:23:58;;;;;;;7.85;2.83;;;;;;;;;;4805749;29;20041;-79
2022/10/03 10:26:30;;;;;;;5.90;2.42;;;;;;;;;;4803385;29;20043;-77
2022/10/03 10:29:09;;;;;;;7.47;2.50;;;;;;;;;;4813389;29;20034;-76
2022/10/03 10:31:47;;;;;;;5.47;2.00;;;;;;;;;;4801546;29;20038;-76
2022/10/03 10:34:32;;;;;;;4.85;2.28;;;;;;;;;;4807708;29;20126;-76
2022/10/03 10:37:18;;;;;;;4.10;2.20;;;;;;;;;;4814145;29;20063;-76
2022/10/03 10:39:51;;;;;;;7.53;2.10;;;;;;;;;;4807667;29;20080;-76
2022/10/03 10:42:39;;;;;;;6.78;2.28;;;;;;;;;;4810605;29;20080;-75
2022/10/03 10:45:23;;;;;;;6.95;2.10;;;;;;;;;;4807279;29;20039;-75
2022/10/03 10:48:08;;;;;;;5.22;2.00;;;;;;;;;;4905367;29;20024;-76
2022/10/03 10:50:40;;;;;;;6.55;2.35;;;;;;;;;;4898501;29;20479;-76
2022/10/03 10:53:27;;;;;;;6.80;2.30;;;;;;;;;;4880413;29;20041;-76
2022/10/03 10:55:55;;;;;;;4.03;2.17;;;;;;;;;;4836854;29;20133;-76
2022/10/03 10:58:42;;;;;;;6.80;2.40;;;;;;;;;;4841314;29;20067;-75
2022/10/03 11:01:27;;;;;;;8.20;2.28;;;;;;;;;;4770503;30;20044;-76
2022/10/03 11:04:19;;;;;;;8.95;2.83;;;;;;;;;;4768836;30;20067;-75
2022/10/03 11:07:03;;;;;;;7.45;2.47;;;;;;;;;;4760943;30;20456;-76
2022/10/03 11:09:52;;;;;;;12.23;2.47;;;;;;;;;;4767508;30;20126;-75
2022/10/03 11:12:24;;;;;;;7.53;2.08;;;;;;;;;;4775249;30;20040;-75
2022/10/03 11:15:09;;;;;;;5.28;2.25;;;;;;;;;;4772519;30;20051;-74
2022/10/03 11:17:43;;;;;;;3.30;1.95;;;;;;;;;;4769122;30;20105;-74
2022/10/03 11:20:28;;;;;;;5.25;2.10;;;;;;;;;;4772242;30;20525;-72
2022/10/03 11:23:14;;;;;;;7.15;2.05;;;;;;;;;;4770129;30;20550;-73
2022/10/03 11:25:55;;;;;;;4.78;2.17;;;;;;;;;;4773027;30;20150;-73
2022/10/03 11:28:39;;;;;;;5.60;2.05;;;;;;;;;;4769945;30;20035;-74
2022/10/03 11:31:19;;;;;;;9.27;2.33;;;;;;;;;;4770782;30;20056;-74
2022/10/03 11:33:58;;;;;;;4.65;2.10;;;;;;;;;;4810110;29;20138;-76
2022/10/03 11:36:36;;;;;;;3.83;2.00;;;;;;;;;;4813851;29;20027;-75
2022/10/03 11:39:14;;;;;;;9.25;2.20;;;;;;;;;;4872408;29;20045;-74
2022/10/03 11:41:46;;;;;;;4.00;1.85;;;;;;;;;;4892948;29;20040;-73
2022/10/03 11:44:22;;;;;;;5.45;2.20;;;;;;;;;;4901745;29;20044;-75
2022/10/03 11:46:56;;;;;;;6.35;2.30;;;;;;;;;;4900077;29;20108;-73
2022/10/03 11:49:33;;;;;;;8.38;2.42;;;;;;;;;;4907310;29;20029;-75
2022/10/03 11:52:18;;;;;;;6.80;2.47;;;;;;;;;;4911031;29;20471;-73
2022/10/03 11:54:48;;;;;;;9.43;2.65;;;;;;;;;;4903423;29;20063;-73
2022/10/03 11:57:24;;;;;;;6.70;2.50;;;;;;;;;;4907689;29;20028;-74
2022/10/03 11:59:53;;;;;;;7.70;2.50;;;;;;;;;;4901267;29;20103;-73
2022/10/03 12:02:38;;;;;;;10.50;2.70;;;;;;;;;;4900559;29;20041;-76
2022/10/03 12:05:17;;;;;;;3.63;2.13;;;;;;;;;;4891087;29;20112;-76
2022/10/03 12:10:57;;;;;;;5.43;2.58;;;;;;;;;;4895402;29;20606;-77
2022/10/03 12:13:29;;;;;;;4.13;2.20;;;;;;;;;;4889266;29;20398;-75
2022/10/03 12:15:57;;;;;;;6.47;2.35;;;;;;;;;;4896507;29;20024;-76
2022/10/03 12:18:27;;;;;;;5.93;2.47;;;;;;;;;;4899234;29;20501;-74
2022/10/03 12:21:11;;;;;;;5.43;2.20;;;;;;;;;;4898079;29;20058;-75
2022/10/03 12:23:37;;;;;;;8.35;2.40;;;;;;;;;;4897720;29;20380;-76
2022/10/03 12:26:04;;;;;;;4.18;2.08;;;;;;;;;;4900255;29;20466;-76
2022/10/03 12:28:39;;;;;;;7.00;2.17;;;;;;;;;;4901396;29;20036;-77
2022/10/03 12:31:08;;;;;;;5.82;2.40;;;;;;;;;;4894239;29;20024;-76
2022/10/03 12:33:53;;;;;;;4.63;1.92;;;;;;;;;;4908267;29;20024;-80
2022/10/03 12:36:19;;;;;;;6.95;2.30;;;;;;;;;;4912514;29;20096;-78
2022/10/03 12:39:07;;;;;;;7.55;2.10;;;;;;;;;;4907227;29;20033;-77
2022/10/03 12:41:36;;;;;;;5.32;2.03;;;;;;;;;;4899792;29;20032;-77
2022/10/03 12:44:26;;;;;;;5.20;2.15;;;;;;;;;;4901107;29;20068;-77
2022/10/03 12:47:15;;;;;;;4.68;2.15;;;;;;;;;;4910273;29;20057;-79
2022/10/03 12:50:21;;;;;;;3.85;1.80;;;;;;;;;;4889999;29;20041;-75
2022/10/03 12:52:53;;;;;;;3.70;1.92;;;;;;;;;;4895432;29;20056;-74
2022/10/03 12:55:34;;;;;;;4.20;1.90;;;;;;;;;;4895790;29;20372;-74
2022/10/03 12:58:07;;;;;;;5.28;2.10;;;;;;;;;;4893675;29;20080;-76
2022/10/03 13:00:33;;;;;;;4.32;1.98;;;;;;;;;;4898580;29;20027;-78
2022/10/03 13:03:18;;;;;;;11.73;2.33;;;;;;;;;;4896878;29;20035;-76
2022/10/03 13:05:54;;;;;;;7.95;2.00;;;;;;;;;;4896052;29;20040;-75
2022/10/03 13:08:39;;;;;;;5.38;2.08;;;;;;;;;;4895979;29;20060;-75
2022/10/03 13:11:14;;;;;;;7.68;1.70;;;;;;;;;;4897146;29;20056;-75
2022/10/03 13:14:02;;;;;;;5.53;2.00;;;;;;;;;;4895008;29;20036;-75
2022/10/03 13:16:33;;;;;;;4.78;1.80;;;;;;;;;;4898224;29;20029;-77
2022/10/03 13:19:20;;;;;;;2.58;1.70;;;;;;;;;;4884064;29;20051;-77
2022/10/03 13:22:06;;;;;;;4.18;1.85;;;;;;;;;;4899152;29;20111;-77
2022/10/03 13:24:47;;;;;;;9.27;2.05;;;;;;;;;;4896854;29;20119;-79
2022/10/03 13:27:22;;;;;;;5.40;2.47;;;;;;;;;;4903703;29;20033;-77
2022/10/03 13:30:05;;;;;;;5.30;2.10;;;;;;;;;;4889962;29;20379;-78
2022/10/03 13:32:36;;;;;;;7.90;2.25;;;;;;;;;;4883721;29;20364;-76
2022/10/03 13:38:32;;;;;;;4.03;1.90;;;;;;;;;;4845270;29;20113;-79
2022/10/03 13:40:58;;;;;;;6.78;1.95;;;;;;;;;;4845269;29;20042;-78
2022/10/03 13:43:34;;;;;;;5.82;2.03;;;;;;;;;;4845379;29;20042;-76
2022/10/03 13:46:02;;;;;;;6.20;1.90;;;;;;;;;;4843991;29;20045;-76
2022/10/03 13:48:29;;;;;;;8.10;2.00;;;;;;;;;;4827255;29;20039;-78
2022/10/03 13:50:57;;;;;;;3.25;1.90;;;;;;;;;;4841444;29;20196;-77
2022/10/03 13:53:44;;;;;;;6.18;2.10;;;;;;;;;;4835534;29;20057;-77
2022/10/03 13:56:15;;;;;;;5.88;2.08;;;;;;;;;;4837625;29;20097;-74
2022/10/03 13:58:57;;;;;;;4.13;1.50;;;;;;;;;;4837828;29;20519;-75
2022/10/03 14:01:23;;;;;;;2.50;1.80;;;;;;;;;;4839961;29;20034;-78
2022/10/03 14:03:56;;;;;;;4.97;2.05;;;;;;;;;;4824412;29;20539;-78
2022/10/03 14:06:39;;;;;;;4.38;1.95;;;;;;;;;;4838805;29;20042;-78
2022/10/03 14:09:05;;;;;;;6.35;2.03;;;;;;;;;;4836158;29;20484;-78
2022/10/03 14:11:53;;;;;;;7.13;1.98;;;;;;;;;;4861834;29;20044;-78
2022/10/03 14:14:51;;;;;;;6.35;1.83;;;;;;;;;;4898543;29;20032;-77
2022/10/03 14:17:36;;;;;;;8.32;1.90;;;;;;;;;;4845484;29;20054;-78
2022/10/03 14:20:03;;;;;;;3.88;1.92;;;;;;;;;;4852559;29;20089;-78
2022/10/03 14:25:58;;;;;;;16.33;1.95;;;;;;;;;;5233057;23;20067;-79
2022/10/03 14:28:56;;;;;;;6.07;1.65;;;;;;;;;;4880484;29;20026;-78
2022/10/03 14:31:47;;;;;;;5.78;1.73;;;;;;;;;;4858256;29;20101;-80
2022/10/03 14:34:32;;;;;;;4.35;1.80;;;;;;;;;;4863576;29;20075;-83
2022/10/03 14:37:19;;;;;;;5.50;1.70;;;;;;;;;;4822334;29;20047;-85
2022/10/03 14:40:19;;;;;;;3.85;1.70;;;;;;;;;;4825706;29;20088;-80
2022/10/03 14:43:20;;;;;;;3.85;1.80;;;;;;;;;;4767440;30;20553;-79
2022/10/03 14:45:57;;;;;;;5.40;1.73;;;;;;;;;;4767713;30;20040;-77
2022/10/03 14:48:44;;;;;;;7.22;2.05;;;;;;;;;;4763653;30;20016;-79
2022/10/03 14:51:34;;;;;;;3.97;1.90;;;;;;;;;;4763022;30;20040;-79
2022/10/03 14:54:15;;;;;;;4.40;1.90;;;;;;;;;;4693515;30;20056;-79
2022/10/03 14:56:47;;;;;;;4.78;2.10;;;;;;;;;;4673084;30;20042;-77
2022/10/03 14:59:33;;;;;;;6.40;1.95;;;;;;;;;;4700435;30;20065;-79
2022/10/03 15:02:01;;;;;;;5.32;2.33;;;;;;;;;;4674010;30;20026;-81
2022/10/03 15:04:30;;;;;;;5.97;1.92;;;;;;;;;;4676840;30;20093;-79
2022/10/03 15:07:01;;;;;;;8.93;2.35;;;;;;;;;;4678712;30;20078;-79
2022/10/03 15:09:47;;;;;;;7.20;2.42;;;;;;;;;;4692714;30;20042;-78
2022/10/03 15:12:36;;;;;;;8.95;2.08;;;;;;;;;;4696633;30;20046;-79
2022/10/03 15:15:12;;;;;;;7.35;1.90;;;;;;;;;;4708281;30;20600;-79
2022/10/03 15:17:49;;;;;;;9.18;2.22;;;;;;;;;;4706299;30;20041;-78
2022/10/03 15:20:25;;;;;;;7.82;2.05;;;;;;;;;;4732694;30;20044;-79
2022/10/03 15:22:52;;;;;;;4.80;1.83;;;;;;;;;;4751349;30;20474;-78
2022/10/03 15:25:20;;;;;;;3.90;1.80;;;;;;;;;;4768673;29;20047;-78
2022/10/03 15:27:51;;;;;;;5.60;2.10;;;;;;;;;;4770304;30;20035;-78
2022/10/03 15:30:29;;;;;;;7.60;2.05;;;;;;;;;;4800503;29;20038;-79
2022/10/03 15:33:03;;;;;;;4.63;1.67;;;;;;;;;;4864080;29;20048;-78
2022/10/03 15:35:30;;;;;;;5.13;1.95;;;;;;;;;;4845310;29;20484;-78
2022/10/03 15:38:07;;;;;;;3.95;1.88;;;;;;;;;;4866820;29;20037;-78
2022/10/03 15:40:39;;;;;;;3.60;1.92;;;;;;;;;;4864172;29;20038;-78
2022/10/03 15:43:11;;;;;;;6.20;1.77;;;;;;;;;;4852700;29;20041;-78
2022/10/03 15:45:39;;;;;;;3.20;1.98;;;;;;;;;;4849203;29;20038;-78
2022/10/03 15:48:21;;;;;;;7.10;2.35;;;;;;;;;;4860392;29;20775;-78
2022/10/03 15:50:51;;;;;;;3.15;1.80;;;;;;;;;;4862460;29;20117;-78
2022/10/03 15:53:17;;;;;;;4.95;2.00;;;;;;;;;;4861876;29;20127;-78
2022/10/03 15:55:48;;;;;;;5.55;2.00;;;;;;;;;;4848014;29;20057;-78
2022/10/03 15:58:14;;;;;;;6.65;2.00;;;;;;;;;;4859248;29;20038;-78
2022/10/03 16:00:41;;;;;;;8.45;2.22;;;;;;;;;;4863650;29;20061;-77
2022/10/03 16:03:15;;;;;;;4.35;1.70;;;;;;;;;;4844634;29;20049;-78
2022/10/03 16:05:53;;;;;;;6.43;1.95;;;;;;;;;;4862033;29;20492;-78
2022/10/03 16:08:21;;;;;;;10.73;2.58;;;;;;;;;;4862962;29;20052;-76
2022/10/03 16:10:57;;;;;;;6.20;2.10;;;;;;;;;;4849713;29;20044;-77
2022/10/03 16:13:32;;;;;;;5.38;1.98;;;;;;;;;;4868332;29;20181;-80
2022/10/03 16:16:09;;;;;;;7.13;2.35;;;;;;;;;;4848329;29;20047;-77
2022/10/03 16:18:55;;;;;;;4.25;2.25;;;;;;;;;;4851136;29;20044;-77
2022/10/03 16:21:21;;;;;;;7.85;2.15;;;;;;;;;;4860457;29;20026;-77
2022/10/03 16:23:49;;;;;;;5.20;2.20;;;;;;;;;;4858167;29;20041;-76
2022/10/03 16:26:30;;;;;;;9.70;2.60;;;;;;;;;;4853848;29;20093;-77
2022/10/03 16:29:01;;;;;;;13.63;5.30;;;;;;;;;;4850753;29;20105;-78
2022/10/03 16:31:36;;;;;;;19.23;11.55;;;;;;;;;;4856910;29;20507;-78
2022/10/03 16:34:24;;;;;;;30.88;23.63;;;;;;;;;;4848981;29;20077;-79
2022/10/03 16:36:50;;;;;;;14.18;9.10;;;;;;;;;;4862243;29;20029;-78
2022/10/03 16:39:24;;;;;;;9.00;6.47;;;;;;;;;;4864891;29;20120;-77
2022/10/03 16:41:56;;;;;;;7.68;4.22;;;;;;;;;;4848636;29;20040;-77
2022/10/03 16:44:28;;;;;;;8.10;3.30;;;;;;;;;;4861980;29;20041;-77
2022/10/03 16:46:56;;;;;;;10.13;3.20;;;;;;;;;;4863948;29;20030;-76
2022/10/03 16:52:14;;;;;;;8.93;5.55;;;;;;;;;;4866097;29;20065;-77
2022/10/03 16:54:42;;;;;;;7.10;4.80;;;;;;;;;;4871535;29;20033;-78
2022/10/03 16:57:13;;;;;;;8.77;5.68;;;;;;;;;;4870120;29;20068;-78
2022/10/03 16:59:41;;;;;;;15.52;8.05;;;;;;;;;;4864114;29;20037;-75
2022/10/03 17:02:16;;;;;;;8.73;5.32;;;;;;;;;;4865849;29;20030;-80
2022/10/03 17:04:46;;;;;;;18.02;10.65;;;;;;;;;;4831358;29;20097;-76
2022/10/03 17:07:15;;;;;;;12.07;8.70;;;;;;;;;;4864098;29;20030;-77
2022/10/03 17:09:48;;;;;;;19.67;13.95;;;;;;;;;;4863476;29;20133;-76
2022/10/03 17:12:14;;;;;;;;;;;;;;;;;;4860526;29;20035;-77
2022/10/03 17:14:43;;;;;;;26.85;15.05;;;;;;;;;;4861812;29;19972;-77
2022/10/03 17:17:22;;;;;;;18.80;9.52;;;;;;;;;;4858487;29;20082;-76
2022/10/03 17:20:06;;;;;;;13.88;8.52;;;;;;;;;;4856336;29;20037;-75
2022/10/03 17:22:44;;;;;;;10.95;7.30;;;;;;;;;;4844064;29;20395;-77
2022/10/03 17:25:25;;;;;;;15.90;6.95;;;;;;;;;;4843670;29;20049;-75
2022/10/03 17:27:52;;;;;;;10.75;5.85;;;;;;;;;;4853559;29;20033;-74
2022/10/03 17:30:18;;;;;;;11.35;6.70;;;;;;;;;;4861042;29;20178;-73
2022/10/03 17:32:52;;;;;;;11.18;6.90;;;;;;;;;;4857913;29;20447;-74
2022/10/03 17:35:24;;;;;;;12.27;5.95;;;;;;;;;;4862371;29;20037;-75
2022/10/03 17:37:56;;;;;;;7.28;4.93;;;;;;;;;;4857444;29;20141;-75
2022/10/03 17:40:28;;;;;;;12.60;6.15;;;;;;;;;;4861540;29;20033;-78
2022/10/03 17:43:00;;;;;;;10.63;4.75;;;;;;;;;;4861201;29;20026;-76
2022/10/03 17:45:35;;;;;;;11.35;4.65;;;;;;;;;;4859669;29;20069;-78
2022/10/03 17:48:04;;;;;;;11.07;5.15;;;;;;;;;;4858301;29;20021;-73
2022/10/03 17:50:35;;;;;;;13.65;5.28;;;;;;;;;;4861266;29;20041;-75
2022/10/03 17:53:02;;;;;;;15.88;5.85;;;;;;;;;;4859719;29;20033;-75
2022/10/03 17:55:54;;;;;;;14.05;7.75;;;;;;;;;;4857468;29;20068;-74
2022/10/03 17:58:23;;;;;;;11.57;4.15;;;;;;;;;;4855783;29;20400;-75
2022/10/03 18:01:08;;;;;;;8.52;5.30;;;;;;;;;;4859016;29;20125;-78
2022/10/03 18:03:40;;;;;;;15.73;8.50;;;;;;;;;;4851336;29;21608;-74
2022/10/03 18:06:25;;;;;;;12.25;5.78;;;;;;;;;;4858563;29;20034;-76
2022/10/03 18:08:51;;;;;;;15.82;5.50;;;;;;;;;;4858825;29;20053;-74
2022/10/03 18:11:20;;;;;;;12.80;6.82;;;;;;;;;;4860541;29;20703;-78
2022/10/03 18:13:51;;;;;;;12.93;6.78;;;;;;;;;;4861036;29;20029;-76
2022/10/03 18:16:22;;;;;;;18.98;7.20;;;;;;;;;;4864536;29;20038;-75
2022/10/03 18:19:09;;;;;;;18.42;7.45;;;;;;;;;;4861593;29;20026;-76
2022/10/03 18:21:36;;;;;;;15.68;6.70;;;;;;;;;;4855150;29;20498;-76
2022/10/03 18:24:21;;;;;;;14.50;5.43;;;;;;;;;;4859801;29;20042;-76
2022/10/03 18:27:07;;;;;;;13.18;5.70;;;;;;;;;;4857720;29;20059;-77
2022/10/03 18:29:47;;;;;;;12.15;6.32;;;;;;;;;;4869102;29;20045;-78
2022/10/03 18:32:15;;;;;;;7.68;4.95;;;;;;;;;;4860289;29;20068;-78
2022/10/03 18:34:43;;;;;;;10.57;5.32;;;;;;;;;;4871301;29;20404;-77
2022/10/03 18:37:30;;;;;;;10.80;4.90;;;;;;;;;;4852809;29;20041;-76
2022/10/03 18:39:58;;;;;;;12.90;6.28;;;;;;;;;;4843230;29;20381;-76
2022/10/03 18:42:27;;;;;;;10.77;6.95;;;;;;;;;;4862715;29;20040;-77
2022/10/03 18:44:55;;;;;;;20.38;13.27;;;;;;;;;;4859492;29;20068;-73
2022/10/03 18:47:22;;;;;;;16.95;6.78;;;;;;;;;;4859306;29;20033;-73
2022/10/03 18:50:14;;;;;;;12.50;5.60;;;;;;;;;;4859656;29;20041;-74
2022/10/03 18:52:47;;;;;;;14.02;6.75;;;;;;;;;;4857560;29;20080;-73
2022/10/03 18:55:16;;;;;;;11.23;5.32;;;;;;;;;;4858339;29;20061;-73
2022/10/03 18:57:47;;;;;;;9.43;5.03;;;;;;;;;;4860327;29;20026;-74
2022/10/03 19:00:25;;;;;;;56.28;35.88;;;;;;;;;;4842385;29;20034;-73
2022/10/03 19:02:57;;;;;;;13.45;8.75;;;;;;;;;;4860792;29;20042;-73
2022/10/03 19:05:27;;;;;;;8.23;4.40;;;;;;;;;;4855388;29;20030;-74
2022/10/03 19:07:58;;;;;;;9.60;3.95;;;;;;;;;;4853261;29;20407;-73
2022/10/03 19:10:32;;;;;;;11.43;3.35;;;;;;;;;;4856048;29;20078;-74
2022/10/03 19:13:13;;;;;;;6.80;3.70;;;;;;;;;;4862551;29;20041;-75
2022/10/03 19:15:56;;;;;;;8.35;3.40;;;;;;;;;;4862520;29;20025;-74
2022/10/03 19:18:32;;;;;;;9.73;4.38;;;;;;;;;;4860153;29;20037;-75
2022/10/03 19:21:01;;;;;;;7.85;3.30;;;;;;;;;;4856865;29;20056;-74
2022/10/03 19:23:27;;;;;;;7.40;3.47;;;;;;;;;;4851064;29;20073;-74
2022/10/03 19:25:57;;;;;;;5.88;3.20;;;;;;;;;;4852929;29;20060;-75
2022/10/03 19:28:48;;;;;;;7.30;3.20;;;;;;;;;;4822001;29;20034;-78
2022/10/03 19:31:23;;;;;;;5.47;3.47;;;;;;;;;;4826993;29;20049;-75
2022/10/03 19:33:56;;;;;;;6.30;2.88;;;;;;;;;;4826800;29;20046;-75
2022/10/03 19:36:23;;;;;;;9.90;3.78;;;;;;;;;;4822811;29;20049;-74
2022/10/03 19:38:51;;;;;;;8.00;3.65;;;;;;;;;;4809916;29;20042;-74
2022/10/03 19:41:33;;;;;;;5.65;2.85;;;;;;;;;;4824519;29;20027;-75
2022/10/03 19:44:13;;;;;;;3.53;2.53;;;;;;;;;;4824379;29;20105;-74
2022/10/03 19:46:42;;;;;;;4.88;2.70;;;;;;;;;;4823410;29;20907;-75
2022/10/03 19:49:14;;;;;;;3.88;2.50;;;;;;;;;;4829429;29;20141;-77
2022/10/03 19:51:42;;;;;;;6.35;2.78;;;;;;;;;;4826912;29;20412;-76
2022/10/03 19:54:12;;;;;;;5.47;2.70;;;;;;;;;;4830134;29;20144;-78
2022/10/03 19:56:38;;;;;;;6.03;2.95;;;;;;;;;;4828781;29;20099;-75
2022/10/03 19:59:16;;;;;;;5.38;2.83;;;;;;;;;;4840075;29;20046;-76
2022/10/03 20:01:43;;;;;;;5.32;2.90;;;;;;;;;;4874429;29;20044;-76
2022/10/03 20:04:12;;;;;;;4.68;2.50;;;;;;;;;;4872872;29;20041;-76
2022/10/03 20:06:41;;;;;;;6.63;2.70;;;;;;;;;;4872171;29;20037;-76
2022/10/03 20:09:20;;;;;;;6.55;2.83;;;;;;;;;;4870690;29;20073;-78
2022/10/03 20:11:50;;;;;;;5.38;2.67;;;;;;;;;;4870149;29;20034;-78
2022/10/03 20:14:25;;;;;;;3.78;2.38;;;;;;;;;;4868678;29;20070;-77
2022/10/03 20:17:02;;;;;;;4.20;2.30;;;;;;;;;;4864562;29;20032;-77
2022/10/03 20:19:36;;;;;;;3.35;2.25;;;;;;;;;;4872712;29;20021;-79
2022/10/03 20:22:04;;;;;;;5.13;2.38;;;;;;;;;;4879203;29;20069;-74
2022/10/03 20:24:33;;;;;;;4.35;2.30;;;;;;;;;;4875172;29;20057;-74
2022/10/03 20:27:19;;;;;;;6.38;2.90;;;;;;;;;;4873363;29;20081;-76
2022/10/03 20:29:52;;;;;;;6.35;2.70;;;;;;;;;;4861132;29;20043;-76
2022/10/03 20:32:19;;;;;;;6.95;2.65;;;;;;;;;;4872549;29;20042;-76
2022/10/03 20:34:50;;;;;;;4.72;2.30;;;;;;;;;;4871559;29;20077;-75
2022/10/03 20:37:38;;;;;;;4.93;2.60;;;;;;;;;;4889992;29;20057;-77
2022/10/03 20:40:17;;;;;;;6.20;2.78;;;;;;;;;;4868680;29;20013;-76
2022/10/03 20:42:47;;;;;;;4.78;2.60;;;;;;;;;;4872714;29;20057;-77
2022/10/03 20:45:25;;;;;;;8.65;2.70;;;;;;;;;;4858994;29;20488;-77
2022/10/03 20:48:00;;;;;;;6.20;2.65;;;;;;;;;;4871905;29;20030;-76
2022/10/03 20:50:49;;;;;;;5.63;2.50;;;;;;;;;;4857819;29;20062;-77
2022/10/03 20:53:21;;;;;;;3.63;2.60;;;;;;;;;;4869187;29;20022;-77
2022/10/03 20:55:47;;;;;;;4.97;2.20;;;;;;;;;;4874834;29;20021;-76
2022/10/03 20:58:16;;;;;;;4.18;2.33;;;;;;;;;;4872473;29;20017;-77
2022/10/03 21:00:46;;;;;;;6.07;2.47;;;;;;;;;;4872425;29;20053;-75
2022/10/03 21:03:21;;;;;;;5.43;2.20;;;;;;;;;;4855026;29;20046;-77
2022/10/03 21:05:56;;;;;;;4.13;2.22;;;;;;;;;;4876594;29;20022;-76
2022/10/03 21:08:32;;;;;;;4.13;2.10;;;;;;;;;;4868216;29;20077;-76
2022/10/03 21:11:01;;;;;;;6.97;2.47;;;;;;;;;;4875782;29;20079;-77
2022/10/03 21:13:30;;;;;;;5.35;2.30;;;;;;;;;;4874719;29;20021;-76
2022/10/03 21:15:57;;;;;;;5.03;2.33;;;;;;;;;;4865200;29;20495;-75
2022/10/03 21:18:23;;;;;;;3.97;2.22;;;;;;;;;;4876603;29;20032;-76
2022/10/03 21:21:11;;;;;;;4.18;2.30;;;;;;;;;;4875256;29;20025;-76
2022/10/03 21:23:41;;;;;;;4.13;2.30;;;;;;;;;;4872946;29;20037;-75
2022/10/03 21:26:08;;;;;;;7.68;2.67;;;;;;;;;;4873552;29;20089;-78
2022/10/03 21:28:35;;;;;;;4.47;2.30;;;;;;;;;;4871611;29;20034;-76
2022/10/03 21:31:01;;;;;;;3.33;2.40;;;;;;;;;;4869966;29;20033;-76
2022/10/03 21:33:36;;;;;;;6.03;2.50;;;;;;;;;;4872391;29;20034;-75
2022/10/03 21:36:12;;;;;;;5.72;2.83;;;;;;;;;;4856764;29;20041;-76